sensor_id;sensor_type;location;lat;lon;timestamp;P1;durP1;ratioP1;P2;durP2;ratioP2
22883;SDS011;13386;24.786;110.488;2023-03-19T00:02:15;49.38;;;14.70;;
22883;SDS011;13386;24.786;110.488;2023-03-19T00:05:24;53.85;;;15.52;;
22883;SDS011;13386;24.786;110.488;2023-03-19T00:08:31;53.97;;;16.35;;
22883;SDS011;13386;24.786;110.488;2023-03-19T00:11:38;51.70;;;16.35;;
22883;SDS011;13386;24.786;110.488;2023-03-19T00:14:45;53.80;;;15.80;;
22883;SDS011;13386;24.786;110.488;2023-03-19T00:17:51;49.10;;;15.43;;
22883;SDS011;13386;24.786;110.488;2023-03-19T00:21:00;51.00;;;16.52;;
22883;SDS011;13386;24.786;110.488;2023-03-19T00:24:07;54.38;;;16.65;;
22883;SDS011;13386;24.786;110.488;2023-03-19T00:27:14;57.00;;;17.52;;
22883;SDS011;13386;24.786;110.488;2023-03-19T00:30:21;55.33;;;17.60;;
22883;SDS011;13386;24.786;110.488;2023-03-19T02:24:00;56.80;;;17.77;;
22883;SDS011;13386;24.786;110.488;2023-03-19T02:27:09;63.63;;;19.23;;
22883;SDS011;13386;24.786;110.488;2023-03-19T02:30:17;62.13;;;18.67;;
22883;SDS011;13386;24.786;110.488;2023-03-19T02:33:24;56.92;;;18.27;;
22883;SDS011;13386;24.786;110.488;2023-03-19T02:36:34;54.42;;;17.80;;
22883;SDS011;13386;24.786;110.488;2023-03-19T02:39:47;55.95;;;17.98;;
22883;SDS011;13386;24.786;110.488;2023-03-19T02:42:56;53.17;;;17.08;;
22883;SDS011;13386;24.786;110.488;2023-03-19T02:46:06;59.38;;;18.58;;
22883;SDS011;13386;24.786;110.488;2023-03-19T02:49:14;53.08;;;19.30;;
22883;SDS011;13386;24.786;110.488;2023-03-19T03:10:38;88.32;;;23.40;;
22883;SDS011;13386;24.786;110.488;2023-03-19T03:13:09;77.55;;;21.33;;
22883;SDS011;13386;24.786;110.488;2023-03-19T03:15:42;80.53;;;21.60;;
22883;SDS011;13386;24.786;110.488;2023-03-19T03:18:14;64.18;;;19.17;;
22883;SDS011;13386;24.786;110.488;2023-03-19T03:20:45;61.92;;;20.25;;
22883;SDS011;13386;24.786;110.488;2023-03-19T03:23:18;58.70;;;19.02;;
22883;SDS011;13386;24.786;110.488;2023-03-19T03:25:50;59.03;;;19.08;;
22883;SDS011;13386;24.786;110.488;2023-03-19T03:28:22;64.68;;;20.30;;
22883;SDS011;13386;24.786;110.488;2023-03-19T03:30:57;65.35;;;20.70;;
22883;SDS011;13386;24.786;110.488;2023-03-19T03:33:28;61.45;;;19.67;;
22883;SDS011;13386;24.786;110.488;2023-03-19T03:35:58;64.05;;;19.35;;
22883;SDS011;13386;24.786;110.488;2023-03-19T03:38:30;66.45;;;20.70;;
22883;SDS011;13386;24.786;110.488;2023-03-19T03:41:02;65.13;;;21.05;;
22883;SDS011;13386;24.786;110.488;2023-03-19T03:43:34;73.20;;;22.65;;
22883;SDS011;13386;24.786;110.488;2023-03-19T03:46:05;66.13;;;20.70;;
22883;SDS011;13386;24.786;110.488;2023-03-19T03:48:35;72.95;;;21.55;;
22883;SDS011;13386;24.786;110.488;2023-03-19T03:51:06;69.25;;;21.17;;
22883;SDS011;13386;24.786;110.488;2023-03-19T03:53:37;63.22;;;21.10;;
22883;SDS011;13386;24.786;110.488;2023-03-19T03:56:09;63.05;;;20.73;;
22883;SDS011;13386;24.786;110.488;2023-03-19T03:58:39;73.72;;;21.42;;
22883;SDS011;13386;24.786;110.488;2023-03-19T04:01:10;59.10;;;20.13;;
22883;SDS011;13386;24.786;110.488;2023-03-19T04:03:45;61.08;;;19.98;;
22883;SDS011;13386;24.786;110.488;2023-03-19T04:06:17;66.53;;;20.73;;
22883;SDS011;13386;24.786;110.488;2023-03-19T04:08:54;66.82;;;21.05;;
22883;SDS011;13386;24.786;110.488;2023-03-19T04:11:26;72.05;;;21.48;;
22883;SDS011;13386;24.786;110.488;2023-03-19T04:13:59;63.30;;;20.95;;
22883;SDS011;13386;24.786;110.488;2023-03-19T04:16:37;68.78;;;22.17;;
22883;SDS011;13386;24.786;110.488;2023-03-19T04:19:11;69.75;;;21.08;;
22883;SDS011;13386;24.786;110.488;2023-03-19T04:21:42;65.43;;;22.08;;
22883;SDS011;13386;24.786;110.488;2023-03-19T04:24:12;67.97;;;21.38;;
22883;SDS011;13386;24.786;110.488;2023-03-19T04:26:45;68.95;;;21.23;;
22883;SDS011;13386;24.786;110.488;2023-03-19T04:29:16;64.40;;;20.95;;
22883;SDS011;13386;24.786;110.488;2023-03-19T04:31:47;72.82;;;22.77;;
22883;SDS011;13386;24.786;110.488;2023-03-19T04:34:20;69.03;;;22.65;;
22883;SDS011;13386;24.786;110.488;2023-03-19T04:36:52;73.63;;;21.52;;
22883;SDS011;13386;24.786;110.488;2023-03-19T04:39:23;72.57;;;22.38;;
22883;SDS011;13386;24.786;110.488;2023-03-19T04:41:55;73.45;;;21.13;;
22883;SDS011;13386;24.786;110.488;2023-03-19T04:44:32;69.93;;;23.25;;
22883;SDS011;13386;24.786;110.488;2023-03-19T04:47:05;75.63;;;22.60;;
22883;SDS011;13386;24.786;110.488;2023-03-19T04:49:47;72.57;;;23.67;;
22883;SDS011;13386;24.786;110.488;2023-03-19T04:52:19;73.72;;;22.38;;
22883;SDS011;13386;24.786;110.488;2023-03-19T04:54:50;75.00;;;23.73;;
22883;SDS011;13386;24.786;110.488;2023-03-19T04:57:24;80.25;;;23.65;;
22883;SDS011;13386;24.786;110.488;2023-03-19T04:59:55;70.50;;;21.35;;
22883;SDS011;13386;24.786;110.488;2023-03-19T05:02:28;69.03;;;22.67;;
22883;SDS011;13386;24.786;110.488;2023-03-19T05:05:00;71.60;;;22.52;;
22883;SDS011;13386;24.786;110.488;2023-03-19T05:07:30;76.28;;;24.08;;
22883;SDS011;13386;24.786;110.488;2023-03-19T05:10:04;72.13;;;21.75;;
22883;SDS011;13386;24.786;110.488;2023-03-19T05:12:47;77.20;;;23.35;;
22883;SDS011;13386;24.786;110.488;2023-03-19T05:15:20;77.00;;;24.20;;
22883;SDS011;13386;24.786;110.488;2023-03-19T05:18:04;76.88;;;25.30;;
22883;SDS011;13386;24.786;110.488;2023-03-19T05:20:41;85.38;;;24.83;;
22883;SDS011;13386;24.786;110.488;2023-03-19T05:23:21;78.07;;;26.67;;
22883;SDS011;13386;24.786;110.488;2023-03-19T05:26:00;87.07;;;26.85;;
22883;SDS011;13386;24.786;110.488;2023-03-19T05:28:55;87.07;;;24.75;;
22883;SDS011;13386;24.786;110.488;2023-03-19T05:31:37;96.15;;;27.45;;
22883;SDS011;13386;24.786;110.488;2023-03-19T05:34:08;88.15;;;27.25;;
22883;SDS011;13386;24.786;110.488;2023-03-19T05:36:39;84.82;;;26.73;;
22883;SDS011;13386;24.786;110.488;2023-03-19T05:39:16;85.63;;;25.23;;
22883;SDS011;13386;24.786;110.488;2023-03-19T05:41:48;89.30;;;28.33;;
22883;SDS011;13386;24.786;110.488;2023-03-19T05:47:04;92.45;;;27.13;;
22883;SDS011;13386;24.786;110.488;2023-03-19T05:49:37;89.32;;;28.63;;
22883;SDS011;13386;24.786;110.488;2023-03-19T05:52:08;94.30;;;29.45;;
22883;SDS011;13386;24.786;110.488;2023-03-19T05:54:38;90.10;;;28.33;;
22883;SDS011;13386;24.786;110.488;2023-03-19T05:57:20;80.70;;;25.25;;
22883;SDS011;13386;24.786;110.488;2023-03-19T05:59:57;87.78;;;25.83;;
22883;SDS011;13386;24.786;110.488;2023-03-19T06:02:37;90.72;;;27.85;;
22883;SDS011;13386;24.786;110.488;2023-03-19T06:05:31;93.97;;;27.92;;
22883;SDS011;13386;24.786;110.488;2023-03-19T06:08:15;96.68;;;27.48;;
22883;SDS011;13386;24.786;110.488;2023-03-19T06:11:09;90.50;;;25.55;;
22883;SDS011;13386;24.786;110.488;2023-03-19T06:13:42;88.53;;;25.08;;
22883;SDS011;13386;24.786;110.488;2023-03-19T06:16:20;89.95;;;26.20;;
22883;SDS011;13386;24.786;110.488;2023-03-19T06:18:55;92.30;;;26.23;;
22883;SDS011;13386;24.786;110.488;2023-03-19T06:21:27;97.43;;;28.17;;
22883;SDS011;13386;24.786;110.488;2023-03-19T06:24:03;83.93;;;23.30;;
22883;SDS011;13386;24.786;110.488;2023-03-19T06:26:36;84.45;;;24.83;;
22883;SDS011;13386;24.786;110.488;2023-03-19T06:29:14;86.60;;;26.20;;
22883;SDS011;13386;24.786;110.488;2023-03-19T06:31:50;88.15;;;25.63;;
22883;SDS011;13386;24.786;110.488;2023-03-19T06:34:29;92.75;;;27.42;;
22883;SDS011;13386;24.786;110.488;2023-03-19T06:37:00;93.38;;;29.75;;
22883;SDS011;13386;24.786;110.488;2023-03-19T06:39:32;90.25;;;28.08;;
22883;SDS011;13386;24.786;110.488;2023-03-19T06:42:04;90.07;;;27.35;;
22883;SDS011;13386;24.786;110.488;2023-03-19T06:44:36;88.03;;;25.42;;
22883;SDS011;13386;24.786;110.488;2023-03-19T06:47:06;86.38;;;24.98;;
22883;SDS011;13386;24.786;110.488;2023-03-19T06:49:44;88.75;;;27.15;;
22883;SDS011;13386;24.786;110.488;2023-03-19T06:52:15;88.05;;;24.65;;
22883;SDS011;13386;24.786;110.488;2023-03-19T06:54:50;84.70;;;25.20;;
22883;SDS011;13386;24.786;110.488;2023-03-19T06:57:23;89.10;;;27.40;;
22883;SDS011;13386;24.786;110.488;2023-03-19T06:59:55;84.53;;;25.92;;
22883;SDS011;13386;24.786;110.488;2023-03-19T07:02:29;84.63;;;25.65;;
22883;SDS011;13386;24.786;110.488;2023-03-19T07:05:03;89.45;;;26.45;;
22883;SDS011;13386;24.786;110.488;2023-03-19T07:07:37;88.65;;;24.63;;
22883;SDS011;13386;24.786;110.488;2023-03-19T07:10:10;84.72;;;26.00;;
22883;SDS011;13386;24.786;110.488;2023-03-19T07:12:41;80.35;;;24.55;;
22883;SDS011;13386;24.786;110.488;2023-03-19T07:15:15;84.50;;;24.30;;
22883;SDS011;13386;24.786;110.488;2023-03-19T07:17:47;90.80;;;25.13;;
22883;SDS011;13386;24.786;110.488;2023-03-19T07:20:25;85.20;;;24.73;;
22883;SDS011;13386;24.786;110.488;2023-03-19T07:25:37;76.95;;;23.60;;
22883;SDS011;13386;24.786;110.488;2023-03-19T07:28:10;83.97;;;24.13;;
22883;SDS011;13386;24.786;110.488;2023-03-19T07:30:41;76.32;;;23.90;;
22883;SDS011;13386;24.786;110.488;2023-03-19T07:33:12;87.63;;;25.17;;
22883;SDS011;13386;24.786;110.488;2023-03-19T07:35:46;79.35;;;24.58;;
22883;SDS011;13386;24.786;110.488;2023-03-19T07:38:21;92.13;;;27.52;;
22883;SDS011;13386;24.786;110.488;2023-03-19T07:40:53;92.28;;;27.10;;
22883;SDS011;13386;24.786;110.488;2023-03-19T07:43:28;83.00;;;25.13;;
22883;SDS011;13386;24.786;110.488;2023-03-19T07:45:59;92.40;;;25.75;;
22883;SDS011;13386;24.786;110.488;2023-03-19T07:48:30;83.70;;;25.75;;
22883;SDS011;13386;24.786;110.488;2023-03-19T07:51:07;85.57;;;25.88;;
22883;SDS011;13386;24.786;110.488;2023-03-19T07:53:40;84.38;;;24.40;;
22883;SDS011;13386;24.786;110.488;2023-03-19T07:56:13;79.35;;;25.40;;
22883;SDS011;13386;24.786;110.488;2023-03-19T07:58:43;86.30;;;27.65;;
22883;SDS011;13386;24.786;110.488;2023-03-19T08:01:15;77.25;;;23.27;;
22883;SDS011;13386;24.786;110.488;2023-03-19T08:03:46;79.82;;;25.20;;
22883;SDS011;13386;24.786;110.488;2023-03-19T08:06:19;76.10;;;24.85;;
22883;SDS011;13386;24.786;110.488;2023-03-19T08:08:52;83.40;;;25.63;;
22883;SDS011;13386;24.786;110.488;2023-03-19T08:14:00;82.00;;;24.10;;
22883;SDS011;13386;24.786;110.488;2023-03-19T08:16:32;77.85;;;22.60;;
22883;SDS011;13386;24.786;110.488;2023-03-19T08:19:03;88.60;;;25.38;;
22883;SDS011;13386;24.786;110.488;2023-03-19T08:21:37;79.25;;;24.35;;
22883;SDS011;13386;24.786;110.488;2023-03-19T08:24:09;84.93;;;25.17;;
22883;SDS011;13386;24.786;110.488;2023-03-19T08:26:40;83.60;;;25.45;;
22883;SDS011;13386;24.786;110.488;2023-03-19T08:29:10;76.05;;;23.45;;
22883;SDS011;13386;24.786;110.488;2023-03-19T08:31:45;74.25;;;22.63;;
22883;SDS011;13386;24.786;110.488;2023-03-19T08:34:20;83.63;;;25.13;;
22883;SDS011;13386;24.786;110.488;2023-03-19T08:36:54;83.38;;;24.02;;
22883;SDS011;13386;24.786;110.488;2023-03-19T08:39:31;77.10;;;22.48;;
22883;SDS011;13386;24.786;110.488;2023-03-19T08:42:11;88.88;;;24.83;;
22883;SDS011;13386;24.786;110.488;2023-03-19T08:44:44;81.55;;;23.67;;
22883;SDS011;13386;24.786;110.488;2023-03-19T08:47:15;83.22;;;22.80;;
22883;SDS011;13386;24.786;110.488;2023-03-19T08:49:49;75.15;;;22.27;;
22883;SDS011;13386;24.786;110.488;2023-03-19T08:52:21;85.82;;;24.00;;
22883;SDS011;13386;24.786;110.488;2023-03-19T08:54:53;77.00;;;22.73;;
22883;SDS011;13386;24.786;110.488;2023-03-19T08:57:24;75.13;;;21.73;;
22883;SDS011;13386;24.786;110.488;2023-03-19T08:59:55;67.35;;;21.65;;
22883;SDS011;13386;24.786;110.488;2023-03-19T09:02:38;71.60;;;22.30;;
22883;SDS011;13386;24.786;110.488;2023-03-19T09:05:09;70.75;;;22.80;;
22883;SDS011;13386;24.786;110.488;2023-03-19T09:07:44;79.28;;;23.00;;
22883;SDS011;13386;24.786;110.488;2023-03-19T09:10:16;73.13;;;22.85;;
22883;SDS011;13386;24.786;110.488;2023-03-19T09:12:48;79.20;;;21.83;;
22883;SDS011;13386;24.786;110.488;2023-03-19T09:15:18;83.38;;;24.38;;
22883;SDS011;13386;24.786;110.488;2023-03-19T09:17:50;74.32;;;21.40;;
22883;SDS011;13386;24.786;110.488;2023-03-19T09:20:22;72.55;;;21.33;;
22883;SDS011;13386;24.786;110.488;2023-03-19T09:22:56;80.38;;;22.80;;
22883;SDS011;13386;24.786;110.488;2023-03-19T09:25:26;71.93;;;20.58;;
22883;SDS011;13386;24.786;110.488;2023-03-19T09:27:56;83.03;;;22.95;;
22883;SDS011;13386;24.786;110.488;2023-03-19T09:30:29;75.70;;;24.17;;
22883;SDS011;13386;24.786;110.488;2023-03-19T09:33:02;85.50;;;23.73;;
22883;SDS011;13386;24.786;110.488;2023-03-19T09:35:47;77.40;;;21.23;;
22883;SDS011;13386;24.786;110.488;2023-03-19T09:38:21;70.78;;;20.60;;
22883;SDS011;13386;24.786;110.488;2023-03-19T09:41:00;78.88;;;21.58;;
22883;SDS011;13386;24.786;110.488;2023-03-19T09:43:53;62.15;;;19.05;;
22883;SDS011;13386;24.786;110.488;2023-03-19T09:46:28;70.97;;;20.75;;
22883;SDS011;13386;24.786;110.488;2023-03-19T09:49:02;64.43;;;19.10;;
22883;SDS011;13386;24.786;110.488;2023-03-19T09:51:38;67.90;;;20.08;;
22883;SDS011;13386;24.786;110.488;2023-03-19T09:54:21;65.80;;;18.55;;
22883;SDS011;13386;24.786;110.488;2023-03-19T09:56:55;62.95;;;18.98;;
22883;SDS011;13386;24.786;110.488;2023-03-19T09:59:27;68.57;;;19.67;;
22883;SDS011;13386;24.786;110.488;2023-03-19T10:02:00;69.38;;;20.15;;
22883;SDS011;13386;24.786;110.488;2023-03-19T10:04:37;62.63;;;18.05;;
22883;SDS011;13386;24.786;110.488;2023-03-19T10:07:23;59.25;;;18.70;;
22883;SDS011;13386;24.786;110.488;2023-03-19T10:10:00;62.47;;;19.52;;
22883;SDS011;13386;24.786;110.488;2023-03-19T10:12:36;62.50;;;19.30;;
22883;SDS011;13386;24.786;110.488;2023-03-19T10:15:14;67.30;;;19.92;;
22883;SDS011;13386;24.786;110.488;2023-03-19T10:17:50;59.67;;;19.48;;
22883;SDS011;13386;24.786;110.488;2023-03-19T10:20:24;69.35;;;21.52;;
22883;SDS011;13386;24.786;110.488;2023-03-19T10:23:00;73.20;;;22.27;;
22883;SDS011;13386;24.786;110.488;2023-03-19T10:25:33;76.53;;;23.08;;
22883;SDS011;13386;24.786;110.488;2023-03-19T10:28:10;62.33;;;19.65;;
22883;SDS011;13386;24.786;110.488;2023-03-19T10:30:49;76.07;;;24.70;;
22883;SDS011;13386;24.786;110.488;2023-03-19T10:33:23;78.80;;;23.48;;
22883;SDS011;13386;24.786;110.488;2023-03-19T10:35:56;75.55;;;22.20;;
22883;SDS011;13386;24.786;110.488;2023-03-19T10:38:27;74.80;;;21.73;;
22883;SDS011;13386;24.786;110.488;2023-03-19T10:41:04;75.22;;;21.85;;
22883;SDS011;13386;24.786;110.488;2023-03-19T10:43:40;66.57;;;21.02;;
22883;SDS011;13386;24.786;110.488;2023-03-19T10:46:12;65.20;;;18.75;;
22883;SDS011;13386;24.786;110.488;2023-03-19T10:48:43;67.88;;;19.30;;
22883;SDS011;13386;24.786;110.488;2023-03-19T10:51:16;71.93;;;21.25;;
22883;SDS011;13386;24.786;110.488;2023-03-19T10:53:47;64.28;;;18.73;;
22883;SDS011;13386;24.786;110.488;2023-03-19T10:56:20;64.30;;;19.58;;
22883;SDS011;13386;24.786;110.488;2023-03-19T10:58:56;64.97;;;20.48;;
22883;SDS011;13386;24.786;110.488;2023-03-19T11:01:34;71.22;;;19.02;;
22883;SDS011;13386;24.786;110.488;2023-03-19T11:04:11;78.68;;;23.13;;
22883;SDS011;13386;24.786;110.488;2023-03-19T11:06:47;69.82;;;20.38;;
22883;SDS011;13386;24.786;110.488;2023-03-19T11:09:18;76.70;;;21.40;;
22883;SDS011;13386;24.786;110.488;2023-03-19T11:14:27;73.10;;;22.15;;
22883;SDS011;13386;24.786;110.488;2023-03-19T11:17:02;73.28;;;21.98;;
22883;SDS011;13386;24.786;110.488;2023-03-19T11:19:34;68.55;;;22.85;;
22883;SDS011;13386;24.786;110.488;2023-03-19T11:22:14;83.57;;;23.38;;
22883;SDS011;13386;24.786;110.488;2023-03-19T11:24:50;73.10;;;20.63;;
22883;SDS011;13386;24.786;110.488;2023-03-19T11:27:27;67.70;;;18.75;;
22883;SDS011;13386;24.786;110.488;2023-03-19T11:30:00;65.03;;;20.33;;
22883;SDS011;13386;24.786;110.488;2023-03-19T11:32:41;70.43;;;20.55;;
22883;SDS011;13386;24.786;110.488;2023-03-19T11:37:49;61.33;;;19.52;;
22883;SDS011;13386;24.786;110.488;2023-03-19T11:40:33;63.70;;;19.52;;
22883;SDS011;13386;24.786;110.488;2023-03-19T11:43:18;66.28;;;19.35;;
22883;SDS011;13386;24.786;110.488;2023-03-19T11:45:56;59.55;;;19.02;;
22883;SDS011;13386;24.786;110.488;2023-03-19T11:48:33;61.72;;;21.35;;
22883;SDS011;13386;24.786;110.488;2023-03-19T11:51:06;62.85;;;21.05;;
22883;SDS011;13386;24.786;110.488;2023-03-19T11:53:40;67.43;;;21.35;;
22883;SDS011;13386;24.786;110.488;2023-03-19T11:56:18;67.40;;;21.90;;
22883;SDS011;13386;24.786;110.488;2023-03-19T11:58:54;58.72;;;19.10;;
22883;SDS011;13386;24.786;110.488;2023-03-19T12:01:32;61.38;;;19.77;;
22883;SDS011;13386;24.786;110.488;2023-03-19T12:04:15;60.40;;;19.60;;
22883;SDS011;13386;24.786;110.488;2023-03-19T12:06:52;57.60;;;20.15;;
22883;SDS011;13386;24.786;110.488;2023-03-19T12:09:27;55.53;;;19.08;;
22883;SDS011;13386;24.786;110.488;2023-03-19T12:11:59;62.30;;;20.00;;
22883;SDS011;13386;24.786;110.488;2023-03-19T12:14:38;63.28;;;21.00;;
22883;SDS011;13386;24.786;110.488;2023-03-19T12:17:19;65.53;;;20.02;;
22883;SDS011;13386;24.786;110.488;2023-03-19T12:19:54;55.88;;;18.83;;
22883;SDS011;13386;24.786;110.488;2023-03-19T12:22:31;63.03;;;20.58;;
22883;SDS011;13386;24.786;110.488;2023-03-19T12:25:19;60.25;;;18.67;;
22883;SDS011;13386;24.786;110.488;2023-03-19T12:27:54;53.42;;;18.05;;
22883;SDS011;13386;24.786;110.488;2023-03-19T12:30:31;60.28;;;20.25;;
22883;SDS011;13386;24.786;110.488;2023-03-19T12:33:10;58.42;;;20.10;;
22883;SDS011;13386;24.786;110.488;2023-03-19T12:35:46;56.13;;;20.52;;
22883;SDS011;13386;24.786;110.488;2023-03-19T12:38:19;56.95;;;20.60;;
22883;SDS011;13386;24.786;110.488;2023-03-19T12:40:55;54.72;;;19.85;;
22883;SDS011;13386;24.786;110.488;2023-03-19T12:43:29;59.30;;;19.52;;
22883;SDS011;13386;24.786;110.488;2023-03-19T12:46:08;55.97;;;19.75;;
22883;SDS011;13386;24.786;110.488;2023-03-19T12:48:45;56.90;;;19.58;;
22883;SDS011;13386;24.786;110.488;2023-03-19T12:51:18;56.28;;;19.25;;
22883;SDS011;13386;24.786;110.488;2023-03-19T12:53:51;63.58;;;18.75;;
22883;SDS011;13386;24.786;110.488;2023-03-19T12:56:24;58.45;;;20.20;;
22883;SDS011;13386;24.786;110.488;2023-03-19T12:58:58;55.47;;;19.88;;
22883;SDS011;13386;24.786;110.488;2023-03-19T13:01:33;52.45;;;18.13;;
22883;SDS011;13386;24.786;110.488;2023-03-19T13:07:04;54.75;;;19.10;;
22883;SDS011;13386;24.786;110.488;2023-03-19T13:09:39;57.08;;;20.38;;
22883;SDS011;13386;24.786;110.488;2023-03-19T13:12:11;49.80;;;18.17;;
22883;SDS011;13386;24.786;110.488;2023-03-19T13:14:46;61.60;;;20.20;;
22883;SDS011;13386;24.786;110.488;2023-03-19T13:17:20;58.10;;;20.30;;
22883;SDS011;13386;24.786;110.488;2023-03-19T13:19:57;57.65;;;19.83;;
22883;SDS011;13386;24.786;110.488;2023-03-19T13:22:29;56.10;;;20.17;;
22883;SDS011;13386;24.786;110.488;2023-03-19T13:25:03;61.65;;;19.08;;
22883;SDS011;13386;24.786;110.488;2023-03-19T13:27:34;53.80;;;19.27;;
22883;SDS011;13386;24.786;110.488;2023-03-19T13:30:16;51.13;;;19.80;;
22883;SDS011;13386;24.786;110.488;2023-03-19T13:32:52;53.42;;;18.25;;
22883;SDS011;13386;24.786;110.488;2023-03-19T13:35:33;52.42;;;18.10;;
22883;SDS011;13386;24.786;110.488;2023-03-19T13:40:42;57.92;;;20.02;;
22883;SDS011;13386;24.786;110.488;2023-03-19T13:49:25;51.47;;;19.33;;
22883;SDS011;13386;24.786;110.488;2023-03-19T13:52:00;55.40;;;20.38;;
22883;SDS011;13386;24.786;110.488;2023-03-19T13:54:35;64.15;;;20.15;;
22883;SDS011;13386;24.786;110.488;2023-03-19T13:57:31;52.05;;;18.23;;
22883;SDS011;13386;24.786;110.488;2023-03-19T14:02:53;59.28;;;20.60;;
22883;SDS011;13386;24.786;110.488;2023-03-19T14:05:32;57.78;;;20.30;;
22883;SDS011;13386;24.786;110.488;2023-03-19T14:08:13;59.13;;;20.75;;
22883;SDS011;13386;24.786;110.488;2023-03-19T14:10:48;53.25;;;20.35;;
22883;SDS011;13386;24.786;110.488;2023-03-19T14:13:36;62.35;;;20.17;;
22883;SDS011;13386;24.786;110.488;2023-03-19T14:16:21;54.38;;;20.23;;
22883;SDS011;13386;24.786;110.488;2023-03-19T14:18:56;57.05;;;21.67;;
22883;SDS011;13386;24.786;110.488;2023-03-19T14:21:38;60.08;;;20.73;;
22883;SDS011;13386;24.786;110.488;2023-03-19T14:27:21;57.72;;;20.23;;
22883;SDS011;13386;24.786;110.488;2023-03-19T14:29:55;54.55;;;19.77;;
22883;SDS011;13386;24.786;110.488;2023-03-19T14:32:31;54.20;;;19.42;;
22883;SDS011;13386;24.786;110.488;2023-03-19T14:35:09;54.17;;;20.25;;
22883;SDS011;13386;24.786;110.488;2023-03-19T14:37:43;58.90;;;19.63;;
22883;SDS011;13386;24.786;110.488;2023-03-19T14:40:18;61.17;;;19.83;;
22883;SDS011;13386;24.786;110.488;2023-03-19T14:42:56;58.40;;;20.33;;
22883;SDS011;13386;24.786;110.488;2023-03-19T14:45:47;58.95;;;19.98;;
22883;SDS011;13386;24.786;110.488;2023-03-19T14:48:29;54.03;;;20.58;;
22883;SDS011;13386;24.786;110.488;2023-03-19T14:53:59;58.95;;;21.17;;
22883;SDS011;13386;24.786;110.488;2023-03-19T14:56:35;54.65;;;19.98;;
22883;SDS011;13386;24.786;110.488;2023-03-19T14:59:08;56.03;;;19.52;;
22883;SDS011;13386;24.786;110.488;2023-03-19T15:01:52;54.45;;;18.83;;
22883;SDS011;13386;24.786;110.488;2023-03-19T15:04:25;55.92;;;19.15;;
22883;SDS011;13386;24.786;110.488;2023-03-19T15:09:45;59.67;;;21.05;;
22883;SDS011;13386;24.786;110.488;2023-03-19T15:12:34;62.80;;;20.73;;
22883;SDS011;13386;24.786;110.488;2023-03-19T15:15:29;63.13;;;20.75;;
22883;SDS011;13386;24.786;110.488;2023-03-19T15:18:06;61.78;;;20.42;;
22883;SDS011;13386;24.786;110.488;2023-03-19T15:20:43;50.17;;;18.77;;
22883;SDS011;13386;24.786;110.488;2023-03-19T15:23:18;56.08;;;20.67;;
22883;SDS011;13386;24.786;110.488;2023-03-19T15:25:52;54.15;;;19.58;;
22883;SDS011;13386;24.786;110.488;2023-03-19T15:28:31;52.63;;;19.35;;
22883;SDS011;13386;24.786;110.488;2023-03-19T15:31:02;54.60;;;17.90;;
22883;SDS011;13386;24.786;110.488;2023-03-19T15:33:39;49.00;;;18.88;;
22883;SDS011;13386;24.786;110.488;2023-03-19T15:36:13;55.58;;;19.88;;
22883;SDS011;13386;24.786;110.488;2023-03-19T15:38:45;52.33;;;18.83;;
22883;SDS011;13386;24.786;110.488;2023-03-19T15:41:18;49.90;;;15.98;;
22883;SDS011;13386;24.786;110.488;2023-03-19T15:43:56;42.95;;;16.38;;
22883;SDS011;13386;24.786;110.488;2023-03-19T15:46:27;48.72;;;18.10;;
22883;SDS011;13386;24.786;110.488;2023-03-19T15:49:08;51.83;;;18.35;;
22883;SDS011;13386;24.786;110.488;2023-03-19T15:51:40;55.15;;;19.05;;
22883;SDS011;13386;24.786;110.488;2023-03-19T15:54:13;45.08;;;15.60;;
22883;SDS011;13386;24.786;110.488;2023-03-19T15:56:47;45.40;;;16.15;;
22883;SDS011;13386;24.786;110.488;2023-03-19T15:59:30;45.80;;;16.48;;
22883;SDS011;13386;24.786;110.488;2023-03-19T16:02:10;50.80;;;18.02;;
22883;SDS011;13386;24.786;110.488;2023-03-19T16:04:55;48.55;;;18.17;;
22883;SDS011;13386;24.786;110.488;2023-03-19T16:07:34;46.35;;;16.10;;
22883;SDS011;13386;24.786;110.488;2023-03-19T16:10:29;52.28;;;17.70;;
22883;SDS011;13386;24.786;110.488;2023-03-19T16:13:00;48.17;;;18.20;;
22883;SDS011;13386;24.786;110.488;2023-03-19T16:15:35;51.22;;;18.63;;
22883;SDS011;13386;24.786;110.488;2023-03-19T16:18:25;50.85;;;17.52;;
22883;SDS011;13386;24.786;110.488;2023-03-19T16:21:11;49.42;;;18.13;;
22883;SDS011;13386;24.786;110.488;2023-03-19T16:23:45;56.40;;;19.00;;
22883;SDS011;13386;24.786;110.488;2023-03-19T16:26:22;51.55;;;18.10;;
22883;SDS011;13386;24.786;110.488;2023-03-19T16:28:57;53.15;;;18.98;;
22883;SDS011;13386;24.786;110.488;2023-03-19T16:31:29;49.95;;;18.67;;
22883;SDS011;13386;24.786;110.488;2023-03-19T16:34:04;49.13;;;17.15;;
22883;SDS011;13386;24.786;110.488;2023-03-19T16:36:44;49.72;;;17.70;;
22883;SDS011;13386;24.786;110.488;2023-03-19T16:39:22;56.38;;;19.50;;
22883;SDS011;13386;24.786;110.488;2023-03-19T16:42:12;52.97;;;18.98;;
22883;SDS011;13386;24.786;110.488;2023-03-19T16:44:43;59.80;;;18.67;;
22883;SDS011;13386;24.786;110.488;2023-03-19T16:47:15;54.78;;;18.67;;
22883;SDS011;13386;24.786;110.488;2023-03-19T16:49:48;57.60;;;20.20;;
22883;SDS011;13386;24.786;110.488;2023-03-19T16:52:28;53.15;;;17.67;;
22883;SDS011;13386;24.786;110.488;2023-03-19T16:55:03;52.97;;;19.77;;
22883;SDS011;13386;24.786;110.488;2023-03-19T16:57:34;53.10;;;18.00;;
22883;SDS011;13386;24.786;110.488;2023-03-19T17:00:11;55.70;;;18.33;;
22883;SDS011;13386;24.786;110.488;2023-03-19T17:02:42;57.05;;;18.52;;
22883;SDS011;13386;24.786;110.488;2023-03-19T17:05:14;56.60;;;18.58;;
22883;SDS011;13386;24.786;110.488;2023-03-19T17:07:47;57.60;;;19.30;;
22883;SDS011;13386;24.786;110.488;2023-03-19T17:10:30;53.05;;;18.40;;
22883;SDS011;13386;24.786;110.488;2023-03-19T17:13:04;56.08;;;19.23;;
22883;SDS011;13386;24.786;110.488;2023-03-19T17:15:37;58.95;;;19.45;;
22883;SDS011;13386;24.786;110.488;2023-03-19T17:18:11;55.67;;;17.73;;
22883;SDS011;13386;24.786;110.488;2023-03-19T17:20:46;56.58;;;19.52;;
22883;SDS011;13386;24.786;110.488;2023-03-19T17:23:22;61.60;;;19.85;;
22883;SDS011;13386;24.786;110.488;2023-03-19T17:25:54;58.20;;;19.85;;
22883;SDS011;13386;24.786;110.488;2023-03-19T17:28:24;59.10;;;20.08;;
22883;SDS011;13386;24.786;110.488;2023-03-19T17:30:55;48.83;;;17.65;;
22883;SDS011;13386;24.786;110.488;2023-03-19T17:33:26;57.85;;;18.27;;
22883;SDS011;13386;24.786;110.488;2023-03-19T17:35:58;60.92;;;20.80;;
22883;SDS011;13386;24.786;110.488;2023-03-19T17:38:32;59.88;;;21.33;;